CYAW

Shearwater  Airport

Shearwater, Canada

CYAW 241400Z 27011KT 15SM FEW015 FEW060 03/M03 A2994 RMK SC1SC1 DA-1214FT SLP141

Observed Flight Rules
Nov-24 @ 14:00 UTC (50 minutes ago)
 
Visual Flight Rules
Wind Visibility Clouds
270° at 11 knots 15 miles
  • Few at 1,500' AGL
  • Few at 6,000' AGL
Temperatures Readings
Current 3°C / 37°F
Dewpoint -3°C / 27°F
Humidity 65%
Altimeter 29.94" Hg
Pressure 1014.1 hPa
Elevation 51
Observed Flight Rules
Nov-24 @ 14:00 UTC
(50 minutes ago)
 
VFR
Wind Visibility
270° at 11 knots 15 miles
Clouds
  • Few at 1,500' AGL
  • Few at 6,000' AGL
Temperature Dewpoint
3°C / 37°F -3°C / 27°F
Humidity Altimeter Pressure
65% 29.94" Hg 1014.1 hPa